Time;durP1;ratioP1;P1;durP2;ratioP2;P2;SDS_P1;SDS_P2;PMS_P1;PMS_P2;Temp;Humidity;BMP_temperature;BMP_pressure;BME280_temperature;BME280_humidity;BME280_pressure;Samples;Min_cycle;Max_cycle;Signal;HPM_P1;HPM_P2
2021/12/01 00:00:23;;;;;;;8.95;4.47;;;;;;;;;;5035948;28;20024;-84
2021/12/01 00:02:53;;;;;;;6.85;3.58;;;;;;;;;;5036134;28;20032;-85
2021/12/01 00:05:18;;;;;;;;;;;;;;;;;;5054395;28;20497;-86
2021/12/01 00:07:44;;;;;;;6.88;3.67;;;;;;;;;;5053876;28;19943;-83
2021/12/01 00:10:09;;;;;;;11.48;4.63;;;;;;;;;;5053739;28;20052;-86
2021/12/01 00:12:35;;;;;;;7.22;3.67;;;;;;;;;;5036208;28;20029;-85
2021/12/01 00:15:01;;;;;;;9.25;4.85;;;;;;;;;;5053860;28;20159;-85
2021/12/01 00:17:27;;;;;;;7.40;4.45;;;;;;;;;;5053738;28;20033;-83
2021/12/01 00:19:53;;;;;;;9.98;4.57;;;;;;;;;;5053864;28;20029;-83
2021/12/01 00:22:19;;;;;;;11.88;6.03;;;;;;;;;;5053893;28;20061;-86
2021/12/01 00:24:45;;;;;;;5.50;3.10;;;;;;;;;;5053600;28;20106;-84
2021/12/01 00:27:11;;;;;;;10.48;5.53;;;;;;;;;;5053647;28;20036;-85
2021/12/01 00:29:36;;;;;;;8.02;4.90;;;;;;;;;;5053156;28;20048;-85
2021/12/01 00:32:03;;;;;;;8.85;4.80;;;;;;;;;;5052696;28;20043;-84
2021/12/01 00:34:28;;;;;;;10.38;5.13;;;;;;;;;;5049303;28;20024;-83
2021/12/01 00:36:54;;;;;;;10.35;6.35;;;;;;;;;;5039569;28;20045;-83
2021/12/01 00:39:19;;;;;;;11.13;6.30;;;;;;;;;;5052970;28;20021;-82
2021/12/01 00:41:47;;;;;;;10.50;5.75;;;;;;;;;;5049229;28;20035;-82
2021/12/01 00:44:13;;;;;;;9.80;5.63;;;;;;;;;;5035561;28;20116;-84
2021/12/01 00:46:52;;;;;;;10.90;5.60;;;;;;;;;;5053172;28;20067;-82
2021/12/01 00:49:18;;;;;;;8.18;5.10;;;;;;;;;;5052619;28;20021;-82
2021/12/01 00:51:44;;;;;;;11.07;6.35;;;;;;;;;;5052388;28;20041;-83
2021/12/01 00:54:10;;;;;;;9.02;5.53;;;;;;;;;;5034201;28;20075;-82
2021/12/01 00:56:35;;;;;;;10.10;5.60;;;;;;;;;;5053222;28;20059;-82
2021/12/01 00:59:01;;;;;;;9.23;5.45;;;;;;;;;;5052831;28;20032;-82
2021/12/01 01:01:26;;;;;;;8.18;4.78;;;;;;;;;;5034761;28;20075;-85
2021/12/01 01:03:52;;;;;;;8.68;5.28;;;;;;;;;;5041098;28;20035;-82
2021/12/01 01:06:17;;;;;;;9.48;4.70;;;;;;;;;;5035126;28;20493;-83
2021/12/01 01:08:45;;;;;;;9.38;5.80;;;;;;;;;;5052676;28;20243;-85
2021/12/01 01:16:22;;;;;;;15.55;8.27;;;;;;;;;;5034897;28;20409;-82
2021/12/01 01:16:43;;;;;;;8.32;5.05;;;;;;;;;;5052101;28;20097;-83
2021/12/01 01:19:09;;;;;;;7.32;4.65;;;;;;;;;;5051995;28;20020;-81
2021/12/01 01:21:41;;;;;;;10.45;4.85;;;;;;;;;;5052256;28;20052;-85
2021/12/01 01:24:07;;;;;;;10.55;5.35;;;;;;;;;;5047865;28;20032;-82
2021/12/01 01:26:35;;;;;;;9.50;4.68;;;;;;;;;;5052588;28;20025;-84
2021/12/01 01:29:00;;;;;;;7.65;4.70;;;;;;;;;;5052401;28;20166;-85
2021/12/01 01:31:27;;;;;;;7.78;4.45;;;;;;;;;;5052518;28;20100;-82
2021/12/01 01:33:53;;;;;;;9.25;4.38;;;;;;;;;;5052011;28;20036;-81
2021/12/01 01:36:19;;;;;;;8.35;4.55;;;;;;;;;;5052313;28;20021;-86
2021/12/01 01:38:45;;;;;;;7.47;4.50;;;;;;;;;;5052339;28;20025;-83
2021/12/01 01:41:13;;;;;;;9.45;5.35;;;;;;;;;;5052392;28;20020;-83
2021/12/01 01:43:40;;;;;;;8.80;5.03;;;;;;;;;;5034348;28;20478;-83
2021/12/01 01:46:07;;;;;;;10.50;5.13;;;;;;;;;;5051351;28;20396;-83
2021/12/01 01:48:45;;;;;;;12.48;4.90;;;;;;;;;;5033990;28;20029;-83
2021/12/01 01:51:11;;;;;;;10.65;5.35;;;;;;;;;;5034238;28;20029;-84
2021/12/01 01:53:36;;;;;;;11.95;5.05;;;;;;;;;;5051665;28;20031;-81
2021/12/01 01:56:04;;;;;;;10.43;5.30;;;;;;;;;;5051623;28;20029;-83
2021/12/01 01:58:30;;;;;;;7.93;4.78;;;;;;;;;;5051842;28;20776;-82
2021/12/01 02:03:30;;;;;;;9.18;5.07;;;;;;;;;;5051915;28;20111;-81
2021/12/01 02:05:56;;;;;;;9.00;4.60;;;;;;;;;;5051414;28;20557;-81
2021/12/01 02:08:29;;;;;;;8.77;3.78;;;;;;;;;;5051784;28;20025;-81
2021/12/01 02:10:57;;;;;;;5.38;3.08;;;;;;;;;;5050907;28;20025;-86
2021/12/01 02:13:22;;;;;;;10.88;3.92;;;;;;;;;;5032579;28;20699;-82
2021/12/01 02:15:50;;;;;;;11.18;4.57;;;;;;;;;;5033437;28;20021;-81
2021/12/01 02:18:16;;;;;;;9.73;4.88;;;;;;;;;;5033472;28;20092;-84
2021/12/01 02:21:05;;;;;;;10.32;5.63;;;;;;;;;;5051785;28;20396;-84
2021/12/01 02:23:32;;;;;;;7.22;3.97;;;;;;;;;;5033614;28;20366;-85
2021/12/01 02:25:58;;;;;;;7.07;4.10;;;;;;;;;;5033271;28;20028;-83
2021/12/01 02:28:23;;;;;;;8.07;5.18;;;;;;;;;;5033534;28;20039;-83
2021/12/01 02:30:49;;;;;;;12.25;5.07;;;;;;;;;;5050866;28;20021;-81
2021/12/01 02:33:14;;;;;;;4.38;2.97;;;;;;;;;;5037529;28;20116;-84
2021/12/01 02:35:40;;;;;;;3.90;2.70;;;;;;;;;;5033787;28;20082;-81
2021/12/01 02:38:06;;;;;;;4.20;2.03;;;;;;;;;;5051936;28;20385;-81
2021/12/01 02:40:33;;;;;;;7.63;4.70;;;;;;;;;;5051482;28;20041;-83
2021/12/01 02:42:59;;;;;;;12.70;5.35;;;;;;;;;;5033781;28;20052;-86
2021/12/01 02:45:24;;;;;;;7.13;3.92;;;;;;;;;;5050187;28;20502;-83
2021/12/01 02:47:50;;;;;;;11.38;5.93;;;;;;;;;;5051380;28;20151;-84
2021/12/01 02:50:16;;;;;;;7.13;4.47;;;;;;;;;;5051511;28;20096;-84
2021/12/01 02:52:41;;;;;;;5.00;3.45;;;;;;;;;;5051714;28;20032;-85
2021/12/01 02:55:09;;;;;;;9.88;5.78;;;;;;;;;;5051121;28;20082;-83
2021/12/01 02:57:53;;;;;;;5.72;3.95;;;;;;;;;;5051550;28;20020;-83
2021/12/01 03:00:21;;;;;;;4.78;2.85;;;;;;;;;;5046840;28;20098;-81
2021/12/01 03:02:47;;;;;;;6.97;4.30;;;;;;;;;;5030535;28;20033;-81
2021/12/01 03:05:15;;;;;;;6.50;3.60;;;;;;;;;;5050690;28;20500;-81
2021/12/01 03:07:41;;;;;;;8.30;4.07;;;;;;;;;;5051529;28;20028;-85
2021/12/01 03:10:07;;;;;;;7.95;4.25;;;;;;;;;;5051080;28;20021;-84
2021/12/01 03:12:36;;;;;;;6.28;4.35;;;;;;;;;;5036146;28;20032;-81
2021/12/01 03:15:04;;;;;;;5.65;3.40;;;;;;;;;;5049894;28;20120;-84
2021/12/01 03:17:30;;;;;;;8.45;4.90;;;;;;;;;;5030986;28;20087;-84
2021/12/01 03:19:57;;;;;;;5.93;3.58;;;;;;;;;;5051287;28;20130;-85
2021/12/01 03:22:24;;;;;;;7.88;4.40;;;;;;;;;;5051489;28;20397;-84
2021/12/01 03:24:50;;;;;;;8.57;4.13;;;;;;;;;;5034659;28;20028;-84
2021/12/01 03:27:16;;;;;;;4.93;2.75;;;;;;;;;;5054565;28;20074;-86
2021/12/01 03:29:41;;;;;;;1.48;1.02;;;;;;;;;;5054579;28;20040;-86
2021/12/01 03:32:07;;;;;;;10.15;4.07;;;;;;;;;;5054497;28;20025;-83
2021/12/01 03:34:36;;;;;;;7.43;3.50;;;;;;;;;;5031825;28;20036;-84
2021/12/01 03:37:02;;;;;;;6.03;3.90;;;;;;;;;;5054837;28;20029;-83
2021/12/01 03:39:27;;;;;;;8.40;4.93;;;;;;;;;;5036344;28;20492;-86
2021/12/01 03:41:53;;;;;;;6.28;3.40;;;;;;;;;;5054456;28;20032;-84
2021/12/01 03:44:18;;;;;;;5.97;3.28;;;;;;;;;;5053819;28;20078;-82
2021/12/01 03:46:44;;;;;;;5.30;2.75;;;;;;;;;;5035765;28;20047;-83
2021/12/01 03:49:10;;;;;;;5.75;3.55;;;;;;;;;;5035566;28;20089;-82
2021/12/01 03:51:35;;;;;;;7.00;4.20;;;;;;;;;;5036109;28;20102;-81
2021/12/01 03:54:01;;;;;;;6.25;4.03;;;;;;;;;;5054683;28;20028;-80
2021/12/01 03:56:27;;;;;;;5.68;3.47;;;;;;;;;;5053901;28;20427;-82
2021/12/01 03:58:53;;;;;;;9.23;4.38;;;;;;;;;;5052836;28;20104;-84
2021/12/01 04:01:19;;;;;;;10.73;4.70;;;;;;;;;;5035970;28;20025;-84
2021/12/01 04:03:45;;;;;;;7.63;4.60;;;;;;;;;;5036112;28;20079;-81
2021/12/01 04:06:10;;;;;;;7.03;3.40;;;;;;;;;;5035922;28;20025;-85
2021/12/01 04:08:37;;;;;;;9.02;5.15;;;;;;;;;;5053655;28;20024;-83
2021/12/01 04:11:03;;;;;;;7.60;4.50;;;;;;;;;;5035877;28;20056;-83
2021/12/01 04:13:28;;;;;;;10.80;4.78;;;;;;;;;;5035844;28;20032;-82
2021/12/01 04:15:54;;;;;;;7.50;4.85;;;;;;;;;;5053365;28;20032;-83
2021/12/01 04:18:19;;;;;;;5.80;3.42;;;;;;;;;;5035725;28;20024;-82
2021/12/01 04:20:45;;;;;;;9.48;4.95;;;;;;;;;;5053311;28;20024;-83
2021/12/01 04:23:10;;;;;;;6.53;3.63;;;;;;;;;;5053647;28;20063;-83
2021/12/01 04:25:36;;;;;;;2.63;1.50;;;;;;;;;;5053663;28;20039;-81
2021/12/01 04:28:02;;;;;;;4.40;2.05;;;;;;;;;;5053538;28;20020;-83
2021/12/01 04:30:28;;;;;;;2.22;1.38;;;;;;;;;;5035067;28;20025;-82
2021/12/01 04:32:54;;;;;;;4.47;1.95;;;;;;;;;;5035448;28;20405;-82
2021/12/01 04:35:23;;;;;;;3.90;1.85;;;;;;;;;;5052181;28;20104;-83
2021/12/01 04:37:49;;;;;;;2.78;1.77;;;;;;;;;;5052800;28;20354;-83
2021/12/01 04:40:15;;;;;;;11.43;2.17;;;;;;;;;;5053644;28;20028;-84
2021/12/01 04:42:41;;;;;;;4.63;1.88;;;;;;;;;;5053452;28;20025;-83
2021/12/01 04:45:14;;;;;;;2.95;2.03;;;;;;;;;;5052862;28;20056;-85
2021/12/01 04:47:47;;;;;;;4.32;1.60;;;;;;;;;;5035695;28;20029;-82
2021/12/01 04:50:14;;;;;;;4.40;2.33;;;;;;;;;;5052446;28;20017;-84
2021/12/01 04:52:39;;;;;;;4.15;2.65;;;;;;;;;;5035469;28;20055;-83
2021/12/01 04:55:06;;;;;;;4.13;2.45;;;;;;;;;;5045522;28;20025;-83
2021/12/01 04:57:31;;;;;;;3.10;1.75;;;;;;;;;;5051206;28;20119;-83
2021/12/01 04:59:57;;;;;;;3.78;2.17;;;;;;;;;;5053022;28;20108;-82
2021/12/01 05:02:22;;;;;;;13.18;2.53;;;;;;;;;;5035949;28;20037;-82
2021/12/01 05:04:48;;;;;;;1.05;0.93;;;;;;;;;;5053190;28;20051;-81
2021/12/01 05:07:14;;;;;;;3.72;1.50;;;;;;;;;;5034961;28;20037;-83
2021/12/01 05:09:40;;;;;;;4.32;1.67;;;;;;;;;;5042376;28;20078;-83
2021/12/01 05:12:07;;;;;;;1.55;0.98;;;;;;;;;;5053098;28;20029;-82
2021/12/01 05:14:35;;;;;;;3.42;1.98;;;;;;;;;;5052397;28;20437;-83
2021/12/01 05:17:00;;;;;;;2.45;1.30;;;;;;;;;;5052933;28;20028;-82
2021/12/01 05:19:26;;;;;;;3.70;2.03;;;;;;;;;;5034519;28;20041;-84
2021/12/01 05:21:51;;;;;;;2.28;1.30;;;;;;;;;;5052611;28;20056;-80
2021/12/01 05:24:18;;;;;;;2.58;1.42;;;;;;;;;;5034425;28;20073;-82
2021/12/01 05:26:43;;;;;;;4.60;2.50;;;;;;;;;;5051901;28;20033;-82
2021/12/01 05:29:09;;;;;;;2.20;1.40;;;;;;;;;;5052119;28;20043;-82
2021/12/01 05:31:34;;;;;;;3.40;1.88;;;;;;;;;;5047924;28;20497;-82
2021/12/01 05:34:00;;;;;;;3.05;1.73;;;;;;;;;;5051753;28;20051;-82
2021/12/01 05:36:26;;;;;;;5.75;2.58;;;;;;;;;;5033975;28;20140;-82
2021/12/01 05:38:51;;;;;;;6.28;1.95;;;;;;;;;;5052037;28;20032;-79
2021/12/01 05:41:17;;;;;;;5.75;2.60;;;;;;;;;;5051396;28;20049;-80
2021/12/01 05:43:43;;;;;;;2.80;1.90;;;;;;;;;;5049962;28;20112;-81
2021/12/01 05:46:09;;;;;;;5.38;2.30;;;;;;;;;;5035704;28;20485;-81
2021/12/01 05:48:34;;;;;;;2.75;1.75;;;;;;;;;;5051434;28;20036;-81
2021/12/01 05:51:00;;;;;;;3.22;1.88;;;;;;;;;;5051521;28;20032;-80
2021/12/01 05:53:25;;;;;;;4.65;1.30;;;;;;;;;;5052107;28;20064;-80
2021/12/01 05:55:51;;;;;;;2.38;1.70;;;;;;;;;;5051589;28;20035;-81
2021/12/01 05:58:17;;;;;;;2.90;1.50;;;;;;;;;;5051366;28;20024;-82
2021/12/01 06:00:43;;;;;;;1.77;1.20;;;;;;;;;;5051582;28;20029;-83
2021/12/01 06:03:09;;;;;;;2.53;1.60;;;;;;;;;;5051710;28;20021;-80
2021/12/01 06:05:36;;;;;;;2.28;1.58;;;;;;;;;;5033760;28;20354;-81
2021/12/01 06:08:01;;;;;;;2.38;1.63;;;;;;;;;;5051679;28;20461;-81
2021/12/01 06:10:27;;;;;;;1.98;1.45;;;;;;;;;;5050935;28;20108;-83
2021/12/01 06:12:52;;;;;;;1.80;1.10;;;;;;;;;;5051564;28;20036;-80
2021/12/01 06:15:18;;;;;;;1.77;1.20;;;;;;;;;;5051426;28;20108;-80
2021/12/01 06:17:44;;;;;;;2.85;1.38;;;;;;;;;;5051985;28;20032;-83
2021/12/01 06:20:11;;;;;;;4.38;2.00;;;;;;;;;;5040992;28;20082;-82
2021/12/01 06:22:37;;;;;;;2.40;1.33;;;;;;;;;;5033589;28;20101;-83
2021/12/01 06:25:03;;;;;;;1.38;1.02;;;;;;;;;;5050366;28;20040;-86
2021/12/01 06:27:29;;;;;;;3.47;1.50;;;;;;;;;;5051001;28;20032;-84
2021/12/01 06:29:55;;;;;;;2.83;1.40;;;;;;;;;;5032700;28;20028;-83
2021/12/01 06:32:21;;;;;;;3.20;1.88;;;;;;;;;;5051113;28;20489;-83
2021/12/01 06:34:47;;;;;;;4.60;1.33;;;;;;;;;;5051170;28;20024;-80
2021/12/01 06:37:13;;;;;;;3.17;1.35;;;;;;;;;;5050645;28;20032;-83
2021/12/01 06:39:42;;;;;;;5.57;1.67;;;;;;;;;;5051284;28;20033;-84
2021/12/01 06:42:08;;;;;;;4.43;2.50;;;;;;;;;;5033222;28;20373;-82
2021/12/01 06:44:33;;;;;;;2.53;1.33;;;;;;;;;;5051131;28;20529;-81
2021/12/01 06:47:00;;;;;;;4.60;1.60;;;;;;;;;;5032931;28;20115;-83
2021/12/01 06:49:28;;;;;;;3.10;1.10;;;;;;;;;;5048674;28;20033;-83
2021/12/01 06:51:54;;;;;;;22.45;10.00;;;;;;;;;;5050889;28;20033;-81
2021/12/01 06:54:19;;;;;;;10.60;6.05;;;;;;;;;;5051151;28;20033;-81
2021/12/01 06:56:45;;;;;;;12.95;7.03;;;;;;;;;;5050890;28;20028;-81
2021/12/01 06:59:13;;;;;;;31.02;11.77;;;;;;;;;;5031333;28;20094;-81
2021/12/01 07:01:39;;;;;;;13.23;8.27;;;;;;;;;;5054066;28;20479;-80
2021/12/01 07:04:04;;;;;;;12.18;7.15;;;;;;;;;;5036061;28;20297;-80
2021/12/01 07:06:30;;;;;;;16.27;8.35;;;;;;;;;;5038871;28;20025;-82
2021/12/01 07:08:59;;;;;;;24.45;11.18;;;;;;;;;;5032659;28;20044;-82
2021/12/01 07:11:26;;;;;;;24.10;11.30;;;;;;;;;;5053348;28;20500;-80
2021/12/01 07:13:51;;;;;;;14.27;8.40;;;;;;;;;;5054379;28;20079;-81
2021/12/01 07:16:17;;;;;;;13.85;7.65;;;;;;;;;;5037457;28;20052;-82
2021/12/01 07:18:42;;;;;;;14.07;6.68;;;;;;;;;;5033774;28;20029;-80
2021/12/01 07:21:08;;;;;;;25.20;11.45;;;;;;;;;;5035576;28;20423;-82
2021/12/01 07:23:34;;;;;;;13.90;8.45;;;;;;;;;;5053918;28;20074;-81
2021/12/01 07:26:01;;;;;;;16.55;8.75;;;;;;;;;;5035157;28;20060;-82
2021/12/01 07:28:27;;;;;;;16.02;9.80;;;;;;;;;;5053919;28;20029;-82
2021/12/01 07:30:52;;;;;;;19.98;9.23;;;;;;;;;;5053060;28;20344;-82
2021/12/01 07:33:18;;;;;;;14.30;7.57;;;;;;;;;;5053826;28;20025;-81
2021/12/01 07:35:44;;;;;;;18.90;8.38;;;;;;;;;;5052859;28;20420;-82
2021/12/01 07:38:12;;;;;;;15.15;8.50;;;;;;;;;;5053835;28;20043;-81
2021/12/01 07:40:38;;;;;;;12.13;7.07;;;;;;;;;;5052491;28;20082;-82
2021/12/01 07:43:03;;;;;;;5.18;3.03;;;;;;;;;;5035781;28;20028;-84
2021/12/01 07:45:29;;;;;;;35.80;19.35;;;;;;;;;;5035656;28;20048;-82
2021/12/01 07:47:55;;;;;;;26.23;15.88;;;;;;;;;;5053118;28;20036;-81
2021/12/01 07:50:21;;;;;;;19.45;11.80;;;;;;;;;;5052367;28;20029;-82
2021/12/01 07:52:46;;;;;;;4.50;2.95;;;;;;;;;;5050456;28;20079;-83
2021/12/01 07:55:12;;;;;;;15.63;8.68;;;;;;;;;;5050203;28;20029;-80
2021/12/01 07:57:38;;;;;;;12.43;7.53;;;;;;;;;;5053016;28;20025;-83
2021/12/01 08:00:05;;;;;;;16.23;9.05;;;;;;;;;;5053064;28;20021;-81
2021/12/01 08:02:30;;;;;;;16.92;9.82;;;;;;;;;;5053972;28;20377;-81
2021/12/01 08:04:57;;;;;;;18.42;9.50;;;;;;;;;;5052240;28;20025;-80
2021/12/01 08:07:24;;;;;;;76.32;39.33;;;;;;;;;;5052675;28;20043;-82
2021/12/01 08:09:50;;;;;;;21.52;14.02;;;;;;;;;;5034313;28;20024;-82
2021/12/01 08:12:15;;;;;;;32.17;15.20;;;;;;;;;;5051978;28;20032;-79
2021/12/01 08:14:41;;;;;;;16.05;10.40;;;;;;;;;;5033834;28;20626;-83
2021/12/01 08:17:07;;;;;;;19.42;9.48;;;;;;;;;;5053218;28;20090;-82
2021/12/01 08:19:33;;;;;;;11.65;6.57;;;;;;;;;;5052762;28;20036;-80
2021/12/01 08:21:58;;;;;;;11.60;7.28;;;;;;;;;;5052755;28;20099;-81
2021/12/01 08:24:24;;;;;;;12.13;7.10;;;;;;;;;;5035175;28;20436;-80
2021/12/01 08:26:50;;;;;;;23.05;10.95;;;;;;;;;;5033716;28;20020;-81
2021/12/01 08:29:16;;;;;;;21.35;11.70;;;;;;;;;;5051326;28;20032;-80
2021/12/01 08:31:43;;;;;;;17.40;9.70;;;;;;;;;;5052010;28;20021;-81
2021/12/01 08:34:09;;;;;;;12.38;7.30;;;;;;;;;;5052502;28;20033;-83
2021/12/01 08:36:35;;;;;;;18.98;9.18;;;;;;;;;;5034212;28;20446;-84
2021/12/01 08:39:01;;;;;;;15.23;9.38;;;;;;;;;;5052325;28;20032;-81
2021/12/01 08:41:27;;;;;;;19.90;11.20;;;;;;;;;;5026522;28;20366;-81
2021/12/01 08:43:52;;;;;;;8.95;5.10;;;;;;;;;;5033968;28;20028;-84
2021/12/01 08:46:17;;;;;;;6.35;3.53;;;;;;;;;;5033819;28;20071;-80
2021/12/01 08:48:43;;;;;;;13.90;8.60;;;;;;;;;;5051994;28;20044;-83
2021/12/01 08:51:09;;;;;;;14.23;8.27;;;;;;;;;;5040145;28;20033;-82
2021/12/01 08:53:39;;;;;;;14.43;8.07;;;;;;;;;;5052524;28;20392;-81
2021/12/01 08:56:05;;;;;;;12.73;7.07;;;;;;;;;;5052155;28;20206;-81
2021/12/01 08:58:31;;;;;;;8.20;5.13;;;;;;;;;;5050513;28;20457;-80
2021/12/01 09:00:57;;;;;;;13.85;6.65;;;;;;;;;;5051243;28;20021;-80
2021/12/01 09:03:24;;;;;;;8.63;4.75;;;;;;;;;;5032348;28;20455;-82
2021/12/01 09:05:50;;;;;;;22.25;10.57;;;;;;;;;;5050131;28;20028;-83
2021/12/01 09:08:20;;;;;;;23.08;10.48;;;;;;;;;;5051668;28;20102;-82
2021/12/01 09:10:47;;;;;;;13.38;6.50;;;;;;;;;;5051865;28;20060;-80
2021/12/01 09:13:13;;;;;;;6.97;3.38;;;;;;;;;;5051575;28;20064;-82
2021/12/01 09:15:39;;;;;;;16.98;10.05;;;;;;;;;;5052091;28;20052;-81
2021/12/01 09:18:05;;;;;;;17.65;10.23;;;;;;;;;;5051818;28;20028;-81
2021/12/01 09:20:31;;;;;;;16.02;8.88;;;;;;;;;;5051637;28;20103;-81
2021/12/01 09:22:57;;;;;;;17.65;9.90;;;;;;;;;;5033454;28;20040;-79
2021/12/01 09:25:23;;;;;;;19.08;11.45;;;;;;;;;;5036603;28;20033;-81
2021/12/01 09:27:49;;;;;;;19.98;11.98;;;;;;;;;;5050379;28;20086;-82
2021/12/01 09:30:17;;;;;;;24.38;12.65;;;;;;;;;;5051868;28;20029;-81
2021/12/01 09:32:43;;;;;;;21.55;11.05;;;;;;;;;;5033010;28;20029;-81
2021/12/01 09:35:11;;;;;;;22.98;12.93;;;;;;;;;;5050831;28;20107;-80
2021/12/01 09:37:37;;;;;;;23.08;10.48;;;;;;;;;;5051587;28;20033;-82
2021/12/01 09:40:05;;;;;;;19.52;10.63;;;;;;;;;;5048405;28;20503;-83
2021/12/01 09:42:31;;;;;;;19.85;12.93;;;;;;;;;;5051274;28;20028;-82
2021/12/01 09:44:57;;;;;;;22.58;14.93;;;;;;;;;;5044657;28;20555;-82
2021/12/01 09:47:24;;;;;;;27.95;15.60;;;;;;;;;;5033946;28;20044;-81
2021/12/01 09:49:50;;;;;;;27.52;16.95;;;;;;;;;;5033056;28;20021;-83
2021/12/01 09:52:18;;;;;;;25.90;17.77;;;;;;;;;;5034968;28;20154;-81
2021/12/01 09:54:44;;;;;;;24.80;13.93;;;;;;;;;;5050163;28;20025;-83
2021/12/01 09:57:13;;;;;;;22.27;13.55;;;;;;;;;;5038488;28;20450;-83
2021/12/01 09:59:43;;;;;;;24.38;14.38;;;;;;;;;;5051172;28;20029;-82
2021/12/01 10:02:10;;;;;;;20.92;12.10;;;;;;;;;;5050762;28;20461;-84
2021/12/01 10:04:36;;;;;;;25.33;14.18;;;;;;;;;;5033057;28;20350;-81
2021/12/01 10:07:22;;;;;;;21.92;13.52;;;;;;;;;;5050372;28;20029;-81
2021/12/01 10:09:52;;;;;;;20.17;12.55;;;;;;;;;;5031846;28;20366;-81
2021/12/01 10:12:18;;;;;;;24.60;13.55;;;;;;;;;;5049907;28;20021;-81
2021/12/01 10:14:48;;;;;;;27.45;14.68;;;;;;;;;;5050001;28;20028;-82
2021/12/01 10:17:16;;;;;;;20.88;13.25;;;;;;;;;;5050521;28;20481;-82
2021/12/01 10:19:42;;;;;;;21.77;12.57;;;;;;;;;;5032792;28;20671;-82
2021/12/01 10:22:10;;;;;;;27.40;13.68;;;;;;;;;;5042707;28;20104;-82
2021/12/01 10:24:38;;;;;;;21.33;11.05;;;;;;;;;;5048948;28;20039;-80
2021/12/01 10:27:12;;;;;;;15.63;9.77;;;;;;;;;;5047494;28;20136;-80
2021/12/01 10:29:48;;;;;;;21.10;11.07;;;;;;;;;;5050074;28;20486;-81
2021/12/01 10:32:16;;;;;;;23.58;10.98;;;;;;;;;;5043493;28;20103;-80
2021/12/01 10:34:50;;;;;;;20.73;10.73;;;;;;;;;;5040955;28;20033;-80
2021/12/01 10:37:28;;;;;;;22.52;12.90;;;;;;;;;;5054984;28;20033;-81
2021/12/01 10:40:11;;;;;;;20.95;11.35;;;;;;;;;;5054271;28;20084;-80
2021/12/01 10:42:52;;;;;;;19.77;10.60;;;;;;;;;;5054321;28;20029;-79
2021/12/01 10:45:20;;;;;;;22.02;11.68;;;;;;;;;;5053186;28;20037;-80
2021/12/01 10:47:46;;;;;;;23.67;12.95;;;;;;;;;;5045751;28;20055;-80
2021/12/01 10:50:17;;;;;;;19.77;10.93;;;;;;;;;;5054233;28;20067;-80
2021/12/01 10:53:22;;;;;;;20.70;12.93;;;;;;;;;;5053946;28;20025;-81
2021/12/01 10:55:57;;;;;;;29.33;15.52;;;;;;;;;;5029953;28;20056;-78
2021/12/01 10:58:31;;;;;;;22.38;12.98;;;;;;;;;;5036712;28;20029;-79
2021/12/01 11:00:57;;;;;;;21.02;10.45;;;;;;;;;;5054217;28;20464;-80
2021/12/01 11:03:25;;;;;;;17.50;9.13;;;;;;;;;;5054522;28;20036;-81
2021/12/01 11:06:11;;;;;;;22.25;10.70;;;;;;;;;;5035651;28;20477;-80
2021/12/01 11:08:40;;;;;;;21.83;10.73;;;;;;;;;;5054000;28;20029;-80
2021/12/01 11:11:13;;;;;;;21.50;11.18;;;;;;;;;;5052966;28;20031;-81
2021/12/01 11:13:41;;;;;;;25.00;12.80;;;;;;;;;;5054090;28;20036;-80
2021/12/01 11:16:10;;;;;;;22.67;11.52;;;;;;;;;;5054110;28;20389;-80
2021/12/01 11:18:38;;;;;;;22.38;12.75;;;;;;;;;;5053311;28;20032;-83
2021/12/01 11:21:14;;;;;;;20.35;11.57;;;;;;;;;;5052998;28;20031;-80
2021/12/01 11:23:41;;;;;;;23.83;13.32;;;;;;;;;;5050422;28;20033;-81
2021/12/01 11:26:10;;;;;;;29.35;13.45;;;;;;;;;;5052889;28;20397;-81
2021/12/01 11:29:00;;;;;;;28.65;14.65;;;;;;;;;;5032829;28;20492;-82
2021/12/01 11:31:29;;;;;;;24.10;11.77;;;;;;;;;;5049768;28;20128;-82
2021/12/01 11:34:00;;;;;;;26.98;12.15;;;;;;;;;;5053289;28;20039;-82
2021/12/01 11:36:29;;;;;;;32.08;15.75;;;;;;;;;;5035198;28;20064;-79
2021/12/01 11:38:57;;;;;;;29.02;13.75;;;;;;;;;;5049026;28;20025;-82
2021/12/01 11:41:24;;;;;;;21.98;12.50;;;;;;;;;;5053013;28;20021;-84
2021/12/01 11:43:51;;;;;;;21.98;12.65;;;;;;;;;;5035228;28;20469;-82
2021/12/01 11:46:17;;;;;;;28.70;15.35;;;;;;;;;;5052583;28;20473;-84
2021/12/01 11:48:49;;;;;;;23.75;13.18;;;;;;;;;;5032032;28;20397;-82
2021/12/01 11:51:36;;;;;;;27.75;14.13;;;;;;;;;;5052615;28;20037;-86
2021/12/01 11:54:09;;;;;;;30.65;16.58;;;;;;;;;;5033771;28;20112;-83
2021/12/01 11:56:37;;;;;;;23.27;14.20;;;;;;;;;;5035534;28;20029;-84
2021/12/01 11:59:15;;;;;;;24.67;14.65;;;;;;;;;;5033619;28;20068;-84
2021/12/01 12:01:46;;;;;;;25.77;13.63;;;;;;;;;;5034151;28;20068;-84
2021/12/01 12:04:11;;;;;;;24.42;14.13;;;;;;;;;;5034459;28;20041;-83
2021/12/01 12:06:48;;;;;;;26.48;13.15;;;;;;;;;;5052424;28;20028;-84
2021/12/01 12:09:18;;;;;;;22.30;14.00;;;;;;;;;;5052167;28;20452;-83
2021/12/01 12:11:51;;;;;;;29.25;15.00;;;;;;;;;;5052374;28;20029;-84
2021/12/01 12:14:27;;;;;;;30.60;17.60;;;;;;;;;;5052501;28;20049;-84
2021/12/01 12:17:10;;;;;;;30.02;15.75;;;;;;;;;;5033394;28;20056;-83
2021/12/01 12:19:54;;;;;;;26.30;14.23;;;;;;;;;;5052537;28;20024;-84
2021/12/01 12:25:06;;;;;;;26.95;13.48;;;;;;;;;;5051930;28;20496;-83
2021/12/01 12:27:44;;;;;;;25.25;13.45;;;;;;;;;;5035433;28;20389;-82
2021/12/01 12:30:28;;;;;;;27.58;13.52;;;;;;;;;;5050780;28;20466;-84
2021/12/01 12:33:31;;;;;;;41.53;16.27;;;;;;;;;;5052977;28;20469;-85
2021/12/01 12:36:02;;;;;;;28.60;13.70;;;;;;;;;;5033327;28;20396;-83
2021/12/01 12:38:29;;;;;;;26.15;13.95;;;;;;;;;;5035172;28;20143;-83
2021/12/01 12:41:24;;;;;;;31.83;15.35;;;;;;;;;;5035073;28;20373;-83
2021/12/01 12:43:49;;;;;;;35.97;15.45;;;;;;;;;;5035605;28;20402;-85
2021/12/01 12:46:17;;;;;;;28.40;14.55;;;;;;;;;;5034733;28;20057;-83
2021/12/01 12:48:51;;;;;;;32.67;16.52;;;;;;;;;;5034569;28;20037;-85
2021/12/01 12:51:20;;;;;;;31.10;15.80;;;;;;;;;;5047579;28;20024;-85
2021/12/01 12:54:01;;;;;;;32.65;17.42;;;;;;;;;;5044407;28;20441;-84
2021/12/01 12:56:38;;;;;;;39.63;19.15;;;;;;;;;;5033432;28;20043;-84
2021/12/01 12:59:26;;;;;;;28.75;15.50;;;;;;;;;;5034689;28;20048;-84
2021/12/01 13:02:11;;;;;;;25.75;14.23;;;;;;;;;;5035083;28;20029;-83
2021/12/01 13:04:47;;;;;;;27.05;13.18;;;;;;;;;;5050904;28;20075;-84
2021/12/01 13:07:31;;;;;;;25.70;13.45;;;;;;;;;;5033852;28;20032;-82
2021/12/01 13:10:03;;;;;;;21.33;12.75;;;;;;;;;;5032332;28;20020;-81
2021/12/01 13:12:29;;;;;;;21.25;12.65;;;;;;;;;;5052069;28;20431;-82
2021/12/01 13:14:54;;;;;;;23.27;13.93;;;;;;;;;;5052768;28;20477;-82
2021/12/01 13:17:20;;;;;;;20.35;11.45;;;;;;;;;;5052451;28;20025;-82
2021/12/01 13:19:46;;;;;;;30.20;15.70;;;;;;;;;;5041567;28;20030;-83
2021/12/01 13:22:12;;;;;;;29.02;14.77;;;;;;;;;;5051982;28;20036;-82
2021/12/01 13:24:38;;;;;;;20.73;12.45;;;;;;;;;;5034024;28;20025;-82
2021/12/01 13:27:03;;;;;;;24.13;12.05;;;;;;;;;;5047416;28;20378;-82
2021/12/01 13:29:29;;;;;;;22.05;13.73;;;;;;;;;;5050232;28;20032;-81
2021/12/01 13:31:55;;;;;;;22.27;14.18;;;;;;;;;;5050512;28;20489;-81
2021/12/01 13:34:20;;;;;;;23.92;13.40;;;;;;;;;;5033850;28;20031;-82
2021/12/01 13:36:56;;;;;;;29.48;17.65;;;;;;;;;;5033550;28;20041;-81
2021/12/01 13:39:31;;;;;;;32.20;18.05;;;;;;;;;;5051323;28;20041;-82
2021/12/01 13:41:58;;;;;;;23.63;14.27;;;;;;;;;;5050904;28;20459;-80
2021/12/01 13:44:34;;;;;;;25.38;14.48;;;;;;;;;;5051140;28;20383;-81
2021/12/01 13:47:10;;;;;;;23.17;12.40;;;;;;;;;;4997366;28;20051;-81
2021/12/01 13:49:48;;;;;;;17.90;11.07;;;;;;;;;;4931560;29;20036;-81
2021/12/01 13:52:39;;;;;;;20.23;11.65;;;;;;;;;;4997335;28;20063;-80
2021/12/01 13:55:16;;;;;;;18.45;9.88;;;;;;;;;;4924124;29;20024;-80
2021/12/01 13:58:05;;;;;;;15.32;10.80;;;;;;;;;;4929158;29;20069;-79
2021/12/01 14:00:39;;;;;;;24.52;14.15;;;;;;;;;;4935391;28;20035;-80
2021/12/01 14:03:08;;;;;;;23.30;14.13;;;;;;;;;;4931228;29;20490;-78
2021/12/01 14:05:34;;;;;;;21.92;11.77;;;;;;;;;;4997344;28;20118;-83
2021/12/01 14:08:08;;;;;;;20.08;9.18;;;;;;;;;;4930978;29;20472;-81
2021/12/01 14:10:36;;;;;;;13.93;8.63;;;;;;;;;;4930949;29;20062;-78
2021/12/01 14:13:04;;;;;;;16.02;8.82;;;;;;;;;;4931000;29;20110;-79
2021/12/01 14:15:32;;;;;;;14.27;9.68;;;;;;;;;;4996857;28;20031;-80
2021/12/01 14:17:59;;;;;;;19.45;9.32;;;;;;;;;;4996619;28;20028;-80
2021/12/01 14:20:25;;;;;;;31.52;14.73;;;;;;;;;;4930927;29;20063;-80
2021/12/01 14:22:56;;;;;;;35.33;18.67;;;;;;;;;;4996671;28;20479;-80
2021/12/01 14:25:22;;;;;;;33.00;15.23;;;;;;;;;;4924396;29;20601;-80
2021/12/01 14:27:51;;;;;;;27.65;15.52;;;;;;;;;;4931322;29;20066;-81
2021/12/01 14:30:18;;;;;;;29.10;14.23;;;;;;;;;;4930283;29;20034;-82
2021/12/01 14:32:48;;;;;;;29.50;13.05;;;;;;;;;;4930800;29;20269;-80
2021/12/01 14:35:13;;;;;;;28.02;12.75;;;;;;;;;;4929911;29;20031;-81
2021/12/01 14:37:39;;;;;;;21.67;12.20;;;;;;;;;;4997010;28;20032;-79
2021/12/01 14:40:11;;;;;;;32.55;19.98;;;;;;;;;;4927244;29;20032;-80
2021/12/01 14:42:46;;;;;;;26.30;14.13;;;;;;;;;;4999661;28;20031;-80
2021/12/01 14:45:13;;;;;;;24.85;14.85;;;;;;;;;;4977661;28;20076;-81